sensor_id;sensor_type;location;lat;lon;timestamp;P1;durP1;ratioP1;P2;durP2;ratioP2
1649;SDS011;822;53.670;8.676;2023-03-19T00:00:06;12.20;;;7.60;;
1649;SDS011;822;53.670;8.676;2023-03-19T00:02:34;9.97;;;7.47;;
1649;SDS011;822;53.670;8.676;2023-03-19T00:05:02;10.73;;;8.37;;
1649;SDS011;822;53.670;8.676;2023-03-19T00:07:32;10.60;;;8.90;;
1649;SDS011;822;53.670;8.676;2023-03-19T00:10:00;10.57;;;7.97;;
1649;SDS011;822;53.670;8.676;2023-03-19T00:12:28;8.40;;;7.33;;
1649;SDS011;822;53.670;8.676;2023-03-19T00:14:55;10.13;;;7.27;;
1649;SDS011;822;53.670;8.676;2023-03-19T00:17:22;10.00;;;7.97;;
1649;SDS011;822;53.670;8.676;2023-03-19T00:19:50;12.00;;;8.33;;
1649;SDS011;822;53.670;8.676;2023-03-19T00:22:20;10.40;;;7.77;;
1649;SDS011;822;53.670;8.676;2023-03-19T00:24:47;9.57;;;7.00;;
1649;SDS011;822;53.670;8.676;2023-03-19T00:27:14;9.77;;;8.10;;
1649;SDS011;822;53.670;8.676;2023-03-19T00:29:42;11.33;;;7.70;;
1649;SDS011;822;53.670;8.676;2023-03-19T00:32:09;8.03;;;6.83;;
1649;SDS011;822;53.670;8.676;2023-03-19T00:34:36;12.40;;;7.40;;
1649;SDS011;822;53.670;8.676;2023-03-19T00:37:03;9.50;;;7.53;;
1649;SDS011;822;53.670;8.676;2023-03-19T00:39:31;9.30;;;7.57;;
1649;SDS011;822;53.670;8.676;2023-03-19T00:41:58;8.13;;;6.70;;
1649;SDS011;822;53.670;8.676;2023-03-19T00:44:26;8.10;;;6.77;;
1649;SDS011;822;53.670;8.676;2023-03-19T00:46:54;11.80;;;7.10;;
1649;SDS011;822;53.670;8.676;2023-03-19T00:49:22;11.87;;;8.27;;
1649;SDS011;822;53.670;8.676;2023-03-19T00:51:49;11.13;;;8.83;;
1649;SDS011;822;53.670;8.676;2023-03-19T00:54:16;12.60;;;9.50;;
1649;SDS011;822;53.670;8.676;2023-03-19T00:56:43;11.50;;;7.97;;
1649;SDS011;822;53.670;8.676;2023-03-19T00:59:10;10.37;;;8.20;;
1649;SDS011;822;53.670;8.676;2023-03-19T01:01:37;9.50;;;6.83;;
1649;SDS011;822;53.670;8.676;2023-03-19T01:04:06;11.03;;;8.23;;
1649;SDS011;822;53.670;8.676;2023-03-19T01:06:35;9.87;;;6.97;;
1649;SDS011;822;53.670;8.676;2023-03-19T01:09:02;8.70;;;6.20;;
1649;SDS011;822;53.670;8.676;2023-03-19T01:11:29;8.00;;;7.20;;
1649;SDS011;822;53.670;8.676;2023-03-19T01:13:56;7.07;;;5.60;;
1649;SDS011;822;53.670;8.676;2023-03-19T01:16:23;8.93;;;6.10;;
1649;SDS011;822;53.670;8.676;2023-03-19T01:18:52;6.07;;;4.47;;
1649;SDS011;822;53.670;8.676;2023-03-19T01:21:20;8.53;;;6.80;;
1649;SDS011;822;53.670;8.676;2023-03-19T01:23:47;6.07;;;5.33;;
1649;SDS011;822;53.670;8.676;2023-03-19T01:26:15;7.17;;;5.10;;
1649;SDS011;822;53.670;8.676;2023-03-19T01:28:43;5.90;;;4.57;;
1649;SDS011;822;53.670;8.676;2023-03-19T01:31:10;7.63;;;5.40;;
1649;SDS011;822;53.670;8.676;2023-03-19T01:33:37;6.90;;;4.87;;
1649;SDS011;822;53.670;8.676;2023-03-19T01:36:05;6.23;;;5.43;;
1649;SDS011;822;53.670;8.676;2023-03-19T01:38:34;6.20;;;4.67;;
1649;SDS011;822;53.670;8.676;2023-03-19T01:41:01;7.30;;;6.20;;
1649;SDS011;822;53.670;8.676;2023-03-19T01:43:29;12.77;;;6.80;;
1649;SDS011;822;53.670;8.676;2023-03-19T01:45:57;6.07;;;4.73;;
1649;SDS011;822;53.670;8.676;2023-03-19T01:48:28;7.47;;;6.70;;
1649;SDS011;822;53.670;8.676;2023-03-19T01:51:02;7.87;;;5.37;;
1649;SDS011;822;53.670;8.676;2023-03-19T01:53:36;7.13;;;4.93;;
1649;SDS011;822;53.670;8.676;2023-03-19T01:56:07;8.53;;;6.03;;
1649;SDS011;822;53.670;8.676;2023-03-19T01:58:38;6.07;;;5.10;;
1649;SDS011;822;53.670;8.676;2023-03-19T02:01:07;6.63;;;5.30;;
1649;SDS011;822;53.670;8.676;2023-03-19T02:03:34;5.53;;;4.10;;
1649;SDS011;822;53.670;8.676;2023-03-19T02:06:03;4.93;;;4.43;;
1649;SDS011;822;53.670;8.676;2023-03-19T02:08:31;4.17;;;3.77;;
1649;SDS011;822;53.670;8.676;2023-03-19T02:11:02;7.70;;;5.00;;
1649;SDS011;822;53.670;8.676;2023-03-19T02:13:30;4.70;;;3.83;;
1649;SDS011;822;53.670;8.676;2023-03-19T02:15:57;6.80;;;6.00;;
1649;SDS011;822;53.670;8.676;2023-03-19T02:18:24;6.30;;;3.90;;
1649;SDS011;822;53.670;8.676;2023-03-19T02:20:53;4.67;;;4.27;;
1649;SDS011;822;53.670;8.676;2023-03-19T02:23:26;4.63;;;3.50;;
1649;SDS011;822;53.670;8.676;2023-03-19T02:26:03;5.00;;;3.70;;
1649;SDS011;822;53.670;8.676;2023-03-19T02:28:33;4.77;;;4.30;;
1649;SDS011;822;53.670;8.676;2023-03-19T02:31:04;5.00;;;4.13;;
1649;SDS011;822;53.670;8.676;2023-03-19T02:33:31;4.63;;;4.23;;
1649;SDS011;822;53.670;8.676;2023-03-19T02:35:59;4.60;;;4.10;;
1649;SDS011;822;53.670;8.676;2023-03-19T02:38:28;5.47;;;4.60;;
1649;SDS011;822;53.670;8.676;2023-03-19T02:40:58;4.73;;;3.77;;
1649;SDS011;822;53.670;8.676;2023-03-19T02:43:30;5.47;;;4.57;;
1649;SDS011;822;53.670;8.676;2023-03-19T02:45:58;3.30;;;3.00;;
1649;SDS011;822;53.670;8.676;2023-03-19T02:48:26;5.27;;;4.60;;
1649;SDS011;822;53.670;8.676;2023-03-19T02:50:54;3.77;;;3.47;;
1649;SDS011;822;53.670;8.676;2023-03-19T02:53:21;4.03;;;3.63;;
1649;SDS011;822;53.670;8.676;2023-03-19T02:55:48;6.03;;;4.73;;
1649;SDS011;822;53.670;8.676;2023-03-19T02:58:16;5.20;;;4.07;;
1649;SDS011;822;53.670;8.676;2023-03-19T03:00:44;3.70;;;3.07;;
1649;SDS011;822;53.670;8.676;2023-03-19T03:03:12;4.23;;;3.80;;
1649;SDS011;822;53.670;8.676;2023-03-19T03:05:39;4.40;;;4.00;;
1649;SDS011;822;53.670;8.676;2023-03-19T03:08:06;3.53;;;3.20;;
1649;SDS011;822;53.670;8.676;2023-03-19T03:10:33;3.33;;;3.03;;
1649;SDS011;822;53.670;8.676;2023-03-19T03:13:01;3.90;;;3.40;;
1649;SDS011;822;53.670;8.676;2023-03-19T03:15:29;4.67;;;4.23;;
1649;SDS011;822;53.670;8.676;2023-03-19T03:17:58;3.43;;;3.13;;
1649;SDS011;822;53.670;8.676;2023-03-19T03:20:25;3.80;;;3.30;;
1649;SDS011;822;53.670;8.676;2023-03-19T03:22:52;5.17;;;3.10;;
1649;SDS011;822;53.670;8.676;2023-03-19T03:25:19;3.80;;;3.30;;
1649;SDS011;822;53.670;8.676;2023-03-19T03:27:46;5.20;;;3.43;;
1649;SDS011;822;53.670;8.676;2023-03-19T03:30:14;3.93;;;3.63;;
1649;SDS011;822;53.670;8.676;2023-03-19T03:32:41;4.60;;;3.30;;
1649;SDS011;822;53.670;8.676;2023-03-19T03:35:10;3.70;;;3.37;;
1649;SDS011;822;53.670;8.676;2023-03-19T03:37:37;3.97;;;3.30;;
1649;SDS011;822;53.670;8.676;2023-03-19T03:40:05;3.23;;;2.93;;
1649;SDS011;822;53.670;8.676;2023-03-19T03:42:33;3.67;;;3.33;;
1649;SDS011;822;53.670;8.676;2023-03-19T03:45:02;3.97;;;3.63;;
1649;SDS011;822;53.670;8.676;2023-03-19T03:47:30;3.83;;;3.53;;
1649;SDS011;822;53.670;8.676;2023-03-19T03:49:57;4.00;;;3.60;;
1649;SDS011;822;53.670;8.676;2023-03-19T03:52:25;5.03;;;4.50;;
1649;SDS011;822;53.670;8.676;2023-03-19T03:54:55;4.57;;;3.53;;
1649;SDS011;822;53.670;8.676;2023-03-19T03:57:23;3.87;;;3.63;;
1649;SDS011;822;53.670;8.676;2023-03-19T03:59:51;4.50;;;3.70;;
1649;SDS011;822;53.670;8.676;2023-03-19T04:02:18;3.27;;;2.90;;
1649;SDS011;822;53.670;8.676;2023-03-19T04:04:46;5.80;;;4.00;;
1649;SDS011;822;53.670;8.676;2023-03-19T04:07:13;4.47;;;4.07;;
1649;SDS011;822;53.670;8.676;2023-03-19T04:09:41;3.70;;;3.37;;
1649;SDS011;822;53.670;8.676;2023-03-19T04:12:10;4.23;;;3.27;;
1649;SDS011;822;53.670;8.676;2023-03-19T04:14:38;5.90;;;4.33;;
1649;SDS011;822;53.670;8.676;2023-03-19T04:17:05;3.87;;;3.50;;
1649;SDS011;822;53.670;8.676;2023-03-19T04:19:32;5.20;;;4.70;;
1649;SDS011;822;53.670;8.676;2023-03-19T04:22:00;5.60;;;4.20;;
1649;SDS011;822;53.670;8.676;2023-03-19T04:24:27;4.20;;;3.80;;
1649;SDS011;822;53.670;8.676;2023-03-19T04:26:56;5.57;;;4.37;;
1649;SDS011;822;53.670;8.676;2023-03-19T04:29:23;4.50;;;4.07;;
1649;SDS011;822;53.670;8.676;2023-03-19T04:31:51;6.30;;;3.87;;
1649;SDS011;822;53.670;8.676;2023-03-19T04:34:18;5.30;;;4.00;;
1649;SDS011;822;53.670;8.676;2023-03-19T04:36:45;4.57;;;3.60;;
1649;SDS011;822;53.670;8.676;2023-03-19T04:39:13;3.30;;;3.00;;
1649;SDS011;822;53.670;8.676;2023-03-19T04:41:40;3.80;;;3.50;;
1649;SDS011;822;53.670;8.676;2023-03-19T04:44:08;4.53;;;3.73;;
1649;SDS011;822;53.670;8.676;2023-03-19T04:46:36;4.70;;;3.40;;
1649;SDS011;822;53.670;8.676;2023-03-19T04:49:03;4.70;;;3.47;;
1649;SDS011;822;53.670;8.676;2023-03-19T04:51:30;4.63;;;3.40;;
1649;SDS011;822;53.670;8.676;2023-03-19T04:54:01;4.67;;;3.47;;
1649;SDS011;822;53.670;8.676;2023-03-19T04:56:29;3.67;;;3.37;;
1649;SDS011;822;53.670;8.676;2023-03-19T04:58:57;4.87;;;4.13;;
1649;SDS011;822;53.670;8.676;2023-03-19T05:01:25;4.40;;;3.87;;
1649;SDS011;822;53.670;8.676;2023-03-19T05:03:52;4.40;;;3.60;;
1649;SDS011;822;53.670;8.676;2023-03-19T05:06:19;7.20;;;4.90;;
1649;SDS011;822;53.670;8.676;2023-03-19T05:08:46;4.10;;;3.70;;
1649;SDS011;822;53.670;8.676;2023-03-19T05:11:13;4.23;;;3.90;;
1649;SDS011;822;53.670;8.676;2023-03-19T05:13:41;6.27;;;5.43;;
1649;SDS011;822;53.670;8.676;2023-03-19T05:16:08;5.27;;;4.00;;
1649;SDS011;822;53.670;8.676;2023-03-19T05:18:36;5.80;;;4.07;;
1649;SDS011;822;53.670;8.676;2023-03-19T05:21:03;4.57;;;4.17;;
1649;SDS011;822;53.670;8.676;2023-03-19T05:23:30;5.60;;;4.80;;
1649;SDS011;822;53.670;8.676;2023-03-19T05:25:58;4.17;;;3.77;;
1649;SDS011;822;53.670;8.676;2023-03-19T05:28:26;5.67;;;4.07;;
1649;SDS011;822;53.670;8.676;2023-03-19T05:30:54;6.97;;;5.80;;
1649;SDS011;822;53.670;8.676;2023-03-19T05:33:21;5.53;;;4.93;;
1649;SDS011;822;53.670;8.676;2023-03-19T05:35:49;10.67;;;5.37;;
1649;SDS011;822;53.670;8.676;2023-03-19T05:38:17;5.40;;;4.50;;
1649;SDS011;822;53.670;8.676;2023-03-19T05:40:44;6.13;;;5.50;;
1649;SDS011;822;53.670;8.676;2023-03-19T05:43:11;5.50;;;4.30;;
1649;SDS011;822;53.670;8.676;2023-03-19T05:45:38;6.97;;;6.30;;
1649;SDS011;822;53.670;8.676;2023-03-19T05:48:06;6.07;;;5.20;;
1649;SDS011;822;53.670;8.676;2023-03-19T05:50:34;6.50;;;5.27;;
1649;SDS011;822;53.670;8.676;2023-03-19T05:53:03;6.33;;;5.70;;
1649;SDS011;822;53.670;8.676;2023-03-19T05:55:30;8.40;;;5.13;;
1649;SDS011;822;53.670;8.676;2023-03-19T05:57:57;5.00;;;4.20;;
1649;SDS011;822;53.670;8.676;2023-03-19T06:00:24;5.87;;;4.83;;
1649;SDS011;822;53.670;8.676;2023-03-19T06:02:51;6.23;;;5.63;;
1649;SDS011;822;53.670;8.676;2023-03-19T06:05:19;6.00;;;4.97;;
1649;SDS011;822;53.670;8.676;2023-03-19T06:07:46;8.00;;;5.57;;
1649;SDS011;822;53.670;8.676;2023-03-19T06:10:15;5.73;;;5.07;;
1649;SDS011;822;53.670;8.676;2023-03-19T06:12:42;7.10;;;5.77;;
1649;SDS011;822;53.670;8.676;2023-03-19T06:15:10;6.93;;;5.47;;
1649;SDS011;822;53.670;8.676;2023-03-19T06:17:37;5.80;;;5.30;;
1649;SDS011;822;53.670;8.676;2023-03-19T06:20:04;7.73;;;5.20;;
1649;SDS011;822;53.670;8.676;2023-03-19T06:22:32;5.73;;;4.87;;
1649;SDS011;822;53.670;8.676;2023-03-19T06:24:59;7.60;;;6.80;;
1649;SDS011;822;53.670;8.676;2023-03-19T06:27:27;5.23;;;4.73;;
1649;SDS011;822;53.670;8.676;2023-03-19T06:29:54;6.70;;;6.07;;
1649;SDS011;822;53.670;8.676;2023-03-19T06:32:22;7.73;;;5.50;;
1649;SDS011;822;53.670;8.676;2023-03-19T06:34:49;10.70;;;7.07;;
1649;SDS011;822;53.670;8.676;2023-03-19T06:37:16;7.90;;;7.10;;
1649;SDS011;822;53.670;8.676;2023-03-19T06:39:43;9.30;;;6.57;;
1649;SDS011;822;53.670;8.676;2023-03-19T06:42:10;8.90;;;6.90;;
1649;SDS011;822;53.670;8.676;2023-03-19T06:44:39;9.67;;;5.50;;
1649;SDS011;822;53.670;8.676;2023-03-19T06:47:06;6.97;;;5.50;;
1649;SDS011;822;53.670;8.676;2023-03-19T06:49:34;6.20;;;4.23;;
1649;SDS011;822;53.670;8.676;2023-03-19T06:52:01;6.97;;;4.60;;
1649;SDS011;822;53.670;8.676;2023-03-19T06:54:29;5.90;;;5.17;;
1649;SDS011;822;53.670;8.676;2023-03-19T06:56:56;5.80;;;5.07;;
1649;SDS011;822;53.670;8.676;2023-03-19T06:59:23;7.20;;;5.50;;
1649;SDS011;822;53.670;8.676;2023-03-19T07:01:52;6.53;;;5.17;;
1649;SDS011;822;53.670;8.676;2023-03-19T07:04:19;6.47;;;4.50;;
1649;SDS011;822;53.670;8.676;2023-03-19T07:06:47;6.97;;;5.67;;
1649;SDS011;822;53.670;8.676;2023-03-19T07:09:14;7.13;;;5.40;;
1649;SDS011;822;53.670;8.676;2023-03-19T07:11:41;6.93;;;5.40;;
1649;SDS011;822;53.670;8.676;2023-03-19T07:14:08;5.97;;;5.23;;
1649;SDS011;822;53.670;8.676;2023-03-19T07:16:36;6.10;;;5.47;;
1649;SDS011;822;53.670;8.676;2023-03-19T07:19:04;5.87;;;5.00;;
1649;SDS011;822;53.670;8.676;2023-03-19T07:21:32;5.80;;;5.20;;
1649;SDS011;822;53.670;8.676;2023-03-19T07:23:59;5.40;;;4.23;;
1649;SDS011;822;53.670;8.676;2023-03-19T07:26:26;6.80;;;5.23;;
1649;SDS011;822;53.670;8.676;2023-03-19T07:28:54;6.47;;;5.83;;
1649;SDS011;822;53.670;8.676;2023-03-19T07:31:21;6.00;;;5.20;;
1649;SDS011;822;53.670;8.676;2023-03-19T07:33:48;5.90;;;5.40;;
1649;SDS011;822;53.670;8.676;2023-03-19T07:36:17;8.67;;;5.67;;
1649;SDS011;822;53.670;8.676;2023-03-19T07:38:46;7.50;;;5.07;;
1649;SDS011;822;53.670;8.676;2023-03-19T07:41:13;6.60;;;5.97;;
1649;SDS011;822;53.670;8.676;2023-03-19T07:43:40;5.60;;;5.10;;
1649;SDS011;822;53.670;8.676;2023-03-19T07:46:07;5.00;;;4.50;;
1649;SDS011;822;53.670;8.676;2023-03-19T07:48:37;6.27;;;5.37;;
1649;SDS011;822;53.670;8.676;2023-03-19T07:51:04;6.10;;;5.37;;
1649;SDS011;822;53.670;8.676;2023-03-19T07:53:33;7.30;;;5.30;;
1649;SDS011;822;53.670;8.676;2023-03-19T07:56:00;6.07;;;5.57;;
1649;SDS011;822;53.670;8.676;2023-03-19T07:58:27;6.60;;;5.70;;
1649;SDS011;822;53.670;8.676;2023-03-19T08:00:54;8.70;;;6.37;;
1649;SDS011;822;53.670;8.676;2023-03-19T08:03:22;8.50;;;5.97;;
1649;SDS011;822;53.670;8.676;2023-03-19T08:05:49;6.20;;;5.10;;
1649;SDS011;822;53.670;8.676;2023-03-19T08:08:16;5.97;;;5.30;;
1649;SDS011;822;53.670;8.676;2023-03-19T08:10:45;6.40;;;5.80;;
1649;SDS011;822;53.670;8.676;2023-03-19T08:13:14;6.40;;;5.77;;
1649;SDS011;822;53.670;8.676;2023-03-19T08:15:42;9.43;;;6.57;;
1649;SDS011;822;53.670;8.676;2023-03-19T08:18:09;5.87;;;4.90;;
1649;SDS011;822;53.670;8.676;2023-03-19T08:20:36;5.70;;;5.07;;
1649;SDS011;822;53.670;8.676;2023-03-19T08:23:03;5.07;;;4.57;;
1649;SDS011;822;53.670;8.676;2023-03-19T08:25:30;5.83;;;4.90;;
1649;SDS011;822;53.670;8.676;2023-03-19T08:27:59;6.40;;;5.80;;
1649;SDS011;822;53.670;8.676;2023-03-19T08:30:26;7.77;;;6.70;;
1649;SDS011;822;53.670;8.676;2023-03-19T08:32:53;7.13;;;5.90;;
1649;SDS011;822;53.670;8.676;2023-03-19T08:35:20;6.67;;;5.97;;
1649;SDS011;822;53.670;8.676;2023-03-19T08:37:48;8.00;;;6.53;;
1649;SDS011;822;53.670;8.676;2023-03-19T08:40:15;7.70;;;6.20;;
1649;SDS011;822;53.670;8.676;2023-03-19T08:42:42;5.40;;;4.93;;
1649;SDS011;822;53.670;8.676;2023-03-19T08:45:11;7.13;;;6.43;;
1649;SDS011;822;53.670;8.676;2023-03-19T08:47:43;7.40;;;5.93;;
1649;SDS011;822;53.670;8.676;2023-03-19T08:50:10;6.80;;;5.60;;
1649;SDS011;822;53.670;8.676;2023-03-19T08:52:38;6.23;;;5.70;;
1649;SDS011;822;53.670;8.676;2023-03-19T08:55:05;8.20;;;6.33;;
1649;SDS011;822;53.670;8.676;2023-03-19T08:57:33;6.93;;;5.83;;
1649;SDS011;822;53.670;8.676;2023-03-19T09:00:00;6.40;;;5.60;;
1649;SDS011;822;53.670;8.676;2023-03-19T09:02:31;8.73;;;6.00;;
1649;SDS011;822;53.670;8.676;2023-03-19T09:04:58;6.47;;;5.57;;
1649;SDS011;822;53.670;8.676;2023-03-19T09:07:25;8.07;;;7.00;;
1649;SDS011;822;53.670;8.676;2023-03-19T09:09:52;7.00;;;6.03;;
1649;SDS011;822;53.670;8.676;2023-03-19T09:12:19;6.30;;;5.70;;
1649;SDS011;822;53.670;8.676;2023-03-19T09:14:47;5.83;;;5.30;;
1649;SDS011;822;53.670;8.676;2023-03-19T09:17:14;9.80;;;6.47;;
1649;SDS011;822;53.670;8.676;2023-03-19T09:19:43;7.30;;;6.60;;
1649;SDS011;822;53.670;8.676;2023-03-19T09:22:10;8.57;;;7.07;;
1649;SDS011;822;53.670;8.676;2023-03-19T09:24:38;7.10;;;6.40;;
1649;SDS011;822;53.670;8.676;2023-03-19T09:27:05;7.80;;;7.10;;
1649;SDS011;822;53.670;8.676;2023-03-19T09:29:32;6.93;;;5.67;;
1649;SDS011;822;53.670;8.676;2023-03-19T09:31:59;6.20;;;4.93;;
1649;SDS011;822;53.670;8.676;2023-03-19T09:34:26;8.50;;;6.30;;
1649;SDS011;822;53.670;8.676;2023-03-19T09:36:55;7.00;;;6.00;;
1649;SDS011;822;53.670;8.676;2023-03-19T09:39:22;6.27;;;5.60;;
1649;SDS011;822;53.670;8.676;2023-03-19T09:41:53;4.23;;;3.90;;
1649;SDS011;822;53.670;8.676;2023-03-19T09:44:29;4.80;;;4.40;;
1649;SDS011;822;53.670;8.676;2023-03-19T09:47:01;9.20;;;5.40;;
1649;SDS011;822;53.670;8.676;2023-03-19T09:49:38;6.20;;;4.00;;
1649;SDS011;822;53.670;8.676;2023-03-19T09:52:14;4.80;;;4.37;;
1649;SDS011;822;53.670;8.676;2023-03-19T09:54:50;4.47;;;3.70;;
1649;SDS011;822;53.670;8.676;2023-03-19T09:57:20;5.50;;;4.43;;
1649;SDS011;822;53.670;8.676;2023-03-19T09:59:48;4.53;;;4.13;;
1649;SDS011;822;53.670;8.676;2023-03-19T10:05:09;5.57;;;4.90;;
1649;SDS011;822;53.670;8.676;2023-03-19T10:07:52;5.37;;;4.87;;
1649;SDS011;822;53.670;8.676;2023-03-19T10:10:40;5.20;;;4.80;;
1649;SDS011;822;53.670;8.676;2023-03-19T10:13:17;5.47;;;4.77;;
1649;SDS011;822;53.670;8.676;2023-03-19T10:15:59;4.90;;;4.40;;
1649;SDS011;822;53.670;8.676;2023-03-19T10:18:28;4.60;;;4.13;;
1649;SDS011;822;53.670;8.676;2023-03-19T10:21:02;5.50;;;5.00;;
1649;SDS011;822;53.670;8.676;2023-03-19T10:23:34;5.77;;;5.20;;
1649;SDS011;822;53.670;8.676;2023-03-19T10:26:08;6.13;;;5.17;;
1649;SDS011;822;53.670;8.676;2023-03-19T10:28:38;4.90;;;4.50;;
1649;SDS011;822;53.670;8.676;2023-03-19T10:31:27;4.17;;;3.83;;
1649;SDS011;822;53.670;8.676;2023-03-19T10:33:57;5.07;;;4.60;;
1649;SDS011;822;53.670;8.676;2023-03-19T10:36:37;4.60;;;4.20;;
1649;SDS011;822;53.670;8.676;2023-03-19T10:39:05;5.20;;;4.70;;
1649;SDS011;822;53.670;8.676;2023-03-19T10:41:37;5.83;;;4.70;;
1649;SDS011;822;53.670;8.676;2023-03-19T10:44:13;5.83;;;5.33;;
1649;SDS011;822;53.670;8.676;2023-03-19T10:46:49;4.90;;;4.50;;
1649;SDS011;822;53.670;8.676;2023-03-19T10:49:17;5.17;;;4.70;;
1649;SDS011;822;53.670;8.676;2023-03-19T10:51:44;5.13;;;4.60;;
1649;SDS011;822;53.670;8.676;2023-03-19T10:54:18;4.63;;;4.23;;
1649;SDS011;822;53.670;8.676;2023-03-19T10:56:47;4.70;;;4.30;;
1649;SDS011;822;53.670;8.676;2023-03-19T10:59:22;4.23;;;3.83;;
1649;SDS011;822;53.670;8.676;2023-03-19T11:01:54;4.57;;;4.17;;
1649;SDS011;822;53.670;8.676;2023-03-19T11:04:24;4.30;;;3.90;;
1649;SDS011;822;53.670;8.676;2023-03-19T11:06:54;4.97;;;3.77;;
1649;SDS011;822;53.670;8.676;2023-03-19T11:09:29;4.77;;;3.90;;
1649;SDS011;822;53.670;8.676;2023-03-19T11:12:04;3.83;;;3.53;;
1649;SDS011;822;53.670;8.676;2023-03-19T11:14:35;4.80;;;4.30;;
1649;SDS011;822;53.670;8.676;2023-03-19T11:17:05;4.87;;;4.43;;
1649;SDS011;822;53.670;8.676;2023-03-19T11:19:42;5.53;;;4.20;;
1649;SDS011;822;53.670;8.676;2023-03-19T11:22:18;5.57;;;5.00;;
1649;SDS011;822;53.670;8.676;2023-03-19T11:24:49;4.40;;;4.00;;
1649;SDS011;822;53.670;8.676;2023-03-19T11:27:25;4.40;;;4.00;;
1649;SDS011;822;53.670;8.676;2023-03-19T11:29:54;4.00;;;3.70;;
1649;SDS011;822;53.670;8.676;2023-03-19T11:35:24;4.50;;;4.03;;
1649;SDS011;822;53.670;8.676;2023-03-19T11:37:56;4.80;;;4.40;;
1649;SDS011;822;53.670;8.676;2023-03-19T11:40:35;4.30;;;3.90;;
1649;SDS011;822;53.670;8.676;2023-03-19T11:46:06;4.60;;;4.20;;
1649;SDS011;822;53.670;8.676;2023-03-19T11:48:54;4.00;;;3.60;;
1649;SDS011;822;53.670;8.676;2023-03-19T11:51:38;3.60;;;3.40;;
1649;SDS011;822;53.670;8.676;2023-03-19T11:54:13;4.67;;;4.00;;
1649;SDS011;822;53.670;8.676;2023-03-19T11:56:49;4.97;;;4.47;;
1649;SDS011;822;53.670;8.676;2023-03-19T11:59:31;5.00;;;4.60;;
1649;SDS011;822;53.670;8.676;2023-03-19T12:02:13;4.43;;;4.03;;
1649;SDS011;822;53.670;8.676;2023-03-19T12:04:55;4.43;;;4.03;;
1649;SDS011;822;53.670;8.676;2023-03-19T12:07:30;4.07;;;3.67;;
1649;SDS011;822;53.670;8.676;2023-03-19T12:10:09;5.50;;;4.43;;
1649;SDS011;822;53.670;8.676;2023-03-19T12:12:54;5.27;;;4.77;;
1649;SDS011;822;53.670;8.676;2023-03-19T12:15:30;4.40;;;4.00;;
1649;SDS011;822;53.670;8.676;2023-03-19T12:18:03;4.90;;;4.50;;
1649;SDS011;822;53.670;8.676;2023-03-19T12:20:41;4.60;;;4.20;;
1649;SDS011;822;53.670;8.676;2023-03-19T12:23:21;4.60;;;4.10;;
1649;SDS011;822;53.670;8.676;2023-03-19T12:26:02;4.03;;;3.73;;
1649;SDS011;822;53.670;8.676;2023-03-19T12:28:33;5.50;;;4.90;;
1649;SDS011;822;53.670;8.676;2023-03-19T12:31:18;4.57;;;4.17;;
1649;SDS011;822;53.670;8.676;2023-03-19T12:34:02;4.83;;;4.43;;
1649;SDS011;822;53.670;8.676;2023-03-19T12:36:44;4.97;;;4.47;;
1649;SDS011;822;53.670;8.676;2023-03-19T12:39:16;5.10;;;3.80;;
1649;SDS011;822;53.670;8.676;2023-03-19T12:41:47;4.93;;;4.53;;
1649;SDS011;822;53.670;8.676;2023-03-19T12:44:18;4.20;;;3.80;;
1649;SDS011;822;53.670;8.676;2023-03-19T12:46:50;4.10;;;3.80;;
1649;SDS011;822;53.670;8.676;2023-03-19T12:49:22;4.60;;;3.20;;
1649;SDS011;822;53.670;8.676;2023-03-19T12:51:56;4.20;;;3.50;;
1649;SDS011;822;53.670;8.676;2023-03-19T12:54:32;4.30;;;3.90;;
1649;SDS011;822;53.670;8.676;2023-03-19T12:57:05;3.97;;;3.60;;
1649;SDS011;822;53.670;8.676;2023-03-19T12:59:39;4.63;;;4.17;;
1649;SDS011;822;53.670;8.676;2023-03-19T13:02:15;5.43;;;4.47;;
1649;SDS011;822;53.670;8.676;2023-03-19T13:04:49;4.70;;;4.20;;
1649;SDS011;822;53.670;8.676;2023-03-19T13:07:21;3.90;;;3.60;;
1649;SDS011;822;53.670;8.676;2023-03-19T13:09:55;4.40;;;4.00;;
1649;SDS011;822;53.670;8.676;2023-03-19T13:12:26;5.20;;;4.70;;
1649;SDS011;822;53.670;8.676;2023-03-19T13:14:58;3.57;;;3.27;;
1649;SDS011;822;53.670;8.676;2023-03-19T13:17:33;4.87;;;4.40;;
1649;SDS011;822;53.670;8.676;2023-03-19T13:20:13;4.93;;;3.77;;
1649;SDS011;822;53.670;8.676;2023-03-19T13:22:46;4.73;;;4.07;;
1649;SDS011;822;53.670;8.676;2023-03-19T13:25:21;3.40;;;3.07;;
1649;SDS011;822;53.670;8.676;2023-03-19T13:27:53;3.67;;;3.37;;
1649;SDS011;822;53.670;8.676;2023-03-19T13:30:22;4.80;;;4.40;;
1649;SDS011;822;53.670;8.676;2023-03-19T13:32:52;3.60;;;3.30;;
1649;SDS011;822;53.670;8.676;2023-03-19T13:35:33;3.87;;;3.53;;
1649;SDS011;822;53.670;8.676;2023-03-19T13:38:10;3.53;;;3.23;;
1649;SDS011;822;53.670;8.676;2023-03-19T13:40:45;3.93;;;3.63;;
1649;SDS011;822;53.670;8.676;2023-03-19T13:43:38;3.20;;;3.00;;
1649;SDS011;822;53.670;8.676;2023-03-19T13:51:58;3.40;;;3.10;;
1649;SDS011;822;53.670;8.676;2023-03-19T13:54:43;3.23;;;2.93;;
1649;SDS011;822;53.670;8.676;2023-03-19T13:57:19;4.27;;;3.87;;
1649;SDS011;822;53.670;8.676;2023-03-19T13:59:57;3.53;;;3.23;;
1649;SDS011;822;53.670;8.676;2023-03-19T14:03:01;4.67;;;3.50;;
1649;SDS011;822;53.670;8.676;2023-03-19T14:05:31;3.80;;;3.43;;
1649;SDS011;822;53.670;8.676;2023-03-19T14:08:06;4.60;;;3.80;;
1649;SDS011;822;53.670;8.676;2023-03-19T14:10:47;4.07;;;3.77;;
1649;SDS011;822;53.670;8.676;2023-03-19T14:13:18;3.00;;;2.80;;
1649;SDS011;822;53.670;8.676;2023-03-19T14:15:53;2.60;;;2.40;;
1649;SDS011;822;53.670;8.676;2023-03-19T14:18:30;3.77;;;3.27;;
1649;SDS011;822;53.670;8.676;2023-03-19T14:20:59;3.13;;;2.83;;
1649;SDS011;822;53.670;8.676;2023-03-19T14:23:32;3.20;;;2.90;;
1649;SDS011;822;53.670;8.676;2023-03-19T14:26:03;3.10;;;2.90;;
1649;SDS011;822;53.670;8.676;2023-03-19T14:28:33;3.00;;;2.80;;
1649;SDS011;822;53.670;8.676;2023-03-19T14:31:04;3.63;;;3.07;;
1649;SDS011;822;53.670;8.676;2023-03-19T14:33:43;3.63;;;3.27;;
1649;SDS011;822;53.670;8.676;2023-03-19T14:36:14;3.53;;;3.23;;
1649;SDS011;822;53.670;8.676;2023-03-19T14:38:45;2.87;;;2.67;;
1649;SDS011;822;53.670;8.676;2023-03-19T14:41:16;3.30;;;3.00;;
1649;SDS011;822;53.670;8.676;2023-03-19T14:46:50;2.53;;;2.30;;
1649;SDS011;822;53.670;8.676;2023-03-19T14:52:28;3.20;;;2.90;;
1649;SDS011;822;53.670;8.676;2023-03-19T14:54:57;3.47;;;3.17;;
1649;SDS011;822;53.670;8.676;2023-03-19T14:57:26;3.83;;;2.90;;
1649;SDS011;822;53.670;8.676;2023-03-19T14:59:55;3.13;;;2.83;;
1649;SDS011;822;53.670;8.676;2023-03-19T15:02:32;2.57;;;2.40;;
1649;SDS011;822;53.670;8.676;2023-03-19T15:05:04;4.10;;;3.17;;
1649;SDS011;822;53.670;8.676;2023-03-19T15:07:35;3.53;;;3.27;;
1649;SDS011;822;53.670;8.676;2023-03-19T15:10:04;2.97;;;2.77;;
1649;SDS011;822;53.670;8.676;2023-03-19T15:12:35;2.70;;;2.53;;
1649;SDS011;822;53.670;8.676;2023-03-19T15:15:22;3.63;;;3.33;;
1649;SDS011;822;53.670;8.676;2023-03-19T15:17:57;3.27;;;2.97;;
1649;SDS011;822;53.670;8.676;2023-03-19T15:20:28;2.80;;;2.60;;
1649;SDS011;822;53.670;8.676;2023-03-19T15:23:00;3.30;;;3.03;;
1649;SDS011;822;53.670;8.676;2023-03-19T15:25:30;3.30;;;3.03;;
1649;SDS011;822;53.670;8.676;2023-03-19T15:28:03;2.10;;;2.00;;
1649;SDS011;822;53.670;8.676;2023-03-19T15:30:31;4.13;;;3.70;;
1649;SDS011;822;53.670;8.676;2023-03-19T15:32:59;3.60;;;3.30;;
1649;SDS011;822;53.670;8.676;2023-03-19T15:35:28;5.73;;;4.30;;
1649;SDS011;822;53.670;8.676;2023-03-19T15:37:59;4.80;;;3.93;;
1649;SDS011;822;53.670;8.676;2023-03-19T15:40:28;5.33;;;4.63;;
1649;SDS011;822;53.670;8.676;2023-03-19T15:42:59;5.63;;;4.93;;
1649;SDS011;822;53.670;8.676;2023-03-19T15:45:30;4.77;;;3.87;;
1649;SDS011;822;53.670;8.676;2023-03-19T15:48:00;4.33;;;3.93;;
1649;SDS011;822;53.670;8.676;2023-03-19T15:50:33;7.77;;;5.47;;
1649;SDS011;822;53.670;8.676;2023-03-19T15:53:03;4.87;;;4.37;;
1649;SDS011;822;53.670;8.676;2023-03-19T15:55:34;5.27;;;4.70;;
1649;SDS011;822;53.670;8.676;2023-03-19T15:58:03;6.80;;;5.53;;
1649;SDS011;822;53.670;8.676;2023-03-19T16:00:34;5.97;;;5.10;;
1649;SDS011;822;53.670;8.676;2023-03-19T16:03:03;6.20;;;5.17;;
1649;SDS011;822;53.670;8.676;2023-03-19T16:05:33;7.90;;;6.30;;
1649;SDS011;822;53.670;8.676;2023-03-19T16:08:00;6.47;;;5.80;;